sensor_id;sensor_type;location;lat;lon;timestamp;P1;durP1;ratioP1;P2;durP2;ratioP2
78322;SDS011;67583;50.616;-3.404;2024-03-06T00:01:41;14.50;;;6.18;;
78322;SDS011;67583;50.616;-3.404;2024-03-06T00:04:06;15.48;;;6.35;;
78322;SDS011;67583;50.616;-3.404;2024-03-06T00:06:32;19.98;;;7.05;;
78322;SDS011;67583;50.616;-3.404;2024-03-06T00:08:58;21.20;;;6.78;;
78322;SDS011;67583;50.616;-3.404;2024-03-06T00:11:24;14.00;;;6.13;;
78322;SDS011;67583;50.616;-3.404;2024-03-06T00:13:49;17.67;;;6.43;;
78322;SDS011;67583;50.616;-3.404;2024-03-06T00:16:16;15.77;;;5.70;;
78322;SDS011;67583;50.616;-3.404;2024-03-06T00:18:42;13.55;;;5.93;;
78322;SDS011;67583;50.616;-3.404;2024-03-06T00:21:07;17.00;;;8.75;;
78322;SDS011;67583;50.616;-3.404;2024-03-06T00:23:34;18.00;;;5.90;;
78322;SDS011;67583;50.616;-3.404;2024-03-06T00:26:01;13.65;;;5.05;;
78322;SDS011;67583;50.616;-3.404;2024-03-06T00:28:27;10.40;;;4.82;;
78322;SDS011;67583;50.616;-3.404;2024-03-06T00:30:55;15.30;;;4.90;;
78322;SDS011;67583;50.616;-3.404;2024-03-06T00:33:21;11.73;;;4.90;;
78322;SDS011;67583;50.616;-3.404;2024-03-06T00:35:47;12.80;;;5.03;;
78322;SDS011;67583;50.616;-3.404;2024-03-06T00:40:38;15.15;;;5.53;;
78322;SDS011;67583;50.616;-3.404;2024-03-06T00:45:30;13.90;;;5.10;;
78322;SDS011;67583;50.616;-3.404;2024-03-06T00:47:55;11.52;;;5.63;;
78322;SDS011;67583;50.616;-3.404;2024-03-06T00:50:21;12.82;;;6.07;;
78322;SDS011;67583;50.616;-3.404;2024-03-06T00:52:47;23.90;;;6.40;;
78322;SDS011;67583;50.616;-3.404;2024-03-06T00:55:13;14.98;;;6.45;;
78322;SDS011;67583;50.616;-3.404;2024-03-06T00:57:39;15.73;;;6.63;;
78322;SDS011;67583;50.616;-3.404;2024-03-06T01:00:04;22.33;;;7.97;;
78322;SDS011;67583;50.616;-3.404;2024-03-06T01:02:35;25.05;;;6.13;;
78322;SDS011;67583;50.616;-3.404;2024-03-06T01:05:03;16.92;;;5.78;;
78322;SDS011;67583;50.616;-3.404;2024-03-06T01:07:29;15.25;;;5.55;;
78322;SDS011;67583;50.616;-3.404;2024-03-06T01:09:55;16.55;;;5.60;;
78322;SDS011;67583;50.616;-3.404;2024-03-06T01:12:22;14.82;;;5.25;;
78322;SDS011;67583;50.616;-3.404;2024-03-06T01:14:50;13.50;;;5.88;;
78322;SDS011;67583;50.616;-3.404;2024-03-06T01:19:41;13.73;;;6.43;;
78322;SDS011;67583;50.616;-3.404;2024-03-06T01:22:08;14.30;;;6.43;;
78322;SDS011;67583;50.616;-3.404;2024-03-06T01:24:34;26.67;;;6.22;;
78322;SDS011;67583;50.616;-3.404;2024-03-06T01:26:59;15.25;;;6.00;;
78322;SDS011;67583;50.616;-3.404;2024-03-06T01:29:27;20.38;;;8.55;;
78322;SDS011;67583;50.616;-3.404;2024-03-06T01:31:55;17.05;;;6.88;;
78322;SDS011;67583;50.616;-3.404;2024-03-06T01:36:47;21.17;;;6.32;;
78322;SDS011;67583;50.616;-3.404;2024-03-06T01:39:12;11.57;;;5.35;;
78322;SDS011;67583;50.616;-3.404;2024-03-06T01:41:44;17.67;;;6.20;;
78322;SDS011;67583;50.616;-3.404;2024-03-06T01:44:10;12.38;;;6.57;;
78322;SDS011;67583;50.616;-3.404;2024-03-06T01:46:35;11.88;;;5.97;;
78322;SDS011;67583;50.616;-3.404;2024-03-06T01:49:00;15.57;;;6.68;;
78322;SDS011;67583;50.616;-3.404;2024-03-06T01:51:26;18.85;;;7.32;;
78322;SDS011;67583;50.616;-3.404;2024-03-06T01:53:52;16.63;;;6.05;;
78322;SDS011;67583;50.616;-3.404;2024-03-06T01:58:44;19.85;;;6.57;;
78322;SDS011;67583;50.616;-3.404;2024-03-06T02:01:11;11.60;;;5.57;;
78322;SDS011;67583;50.616;-3.404;2024-03-06T02:03:37;15.20;;;6.32;;
78322;SDS011;67583;50.616;-3.404;2024-03-06T02:06:03;15.57;;;6.68;;
78322;SDS011;67583;50.616;-3.404;2024-03-06T02:08:30;10.40;;;6.55;;
78322;SDS011;67583;50.616;-3.404;2024-03-06T02:10:55;11.68;;;5.47;;
78322;SDS011;67583;50.616;-3.404;2024-03-06T02:13:21;15.15;;;5.57;;
78322;SDS011;67583;50.616;-3.404;2024-03-06T02:15:46;14.30;;;5.22;;
78322;SDS011;67583;50.616;-3.404;2024-03-06T02:18:12;22.73;;;6.38;;
78322;SDS011;67583;50.616;-3.404;2024-03-06T02:20:38;18.35;;;5.80;;
78322;SDS011;67583;50.616;-3.404;2024-03-06T02:23:05;12.93;;;5.00;;
78322;SDS011;67583;50.616;-3.404;2024-03-06T02:25:30;12.43;;;5.32;;
78322;SDS011;67583;50.616;-3.404;2024-03-06T02:27:56;11.55;;;5.05;;
78322;SDS011;67583;50.616;-3.404;2024-03-06T02:30:21;22.58;;;11.05;;
78322;SDS011;67583;50.616;-3.404;2024-03-06T02:32:46;18.52;;;8.75;;
78322;SDS011;67583;50.616;-3.404;2024-03-06T02:35:12;17.90;;;6.50;;
78322;SDS011;67583;50.616;-3.404;2024-03-06T02:37:38;13.02;;;6.47;;
78322;SDS011;67583;50.616;-3.404;2024-03-06T02:40:06;18.70;;;6.47;;
78322;SDS011;67583;50.616;-3.404;2024-03-06T02:42:35;10.10;;;5.43;;
78322;SDS011;67583;50.616;-3.404;2024-03-06T02:45:04;12.35;;;4.90;;
78322;SDS011;67583;50.616;-3.404;2024-03-06T02:47:30;12.40;;;5.22;;
78322;SDS011;67583;50.616;-3.404;2024-03-06T02:49:56;11.73;;;4.63;;
78322;SDS011;67583;50.616;-3.404;2024-03-06T02:52:21;13.25;;;5.78;;
78322;SDS011;67583;50.616;-3.404;2024-03-06T02:57:13;15.10;;;5.55;;
78322;SDS011;67583;50.616;-3.404;2024-03-06T02:59:42;19.20;;;5.50;;
78322;SDS011;67583;50.616;-3.404;2024-03-06T03:02:07;17.58;;;5.75;;
78322;SDS011;67583;50.616;-3.404;2024-03-06T03:04:33;22.27;;;6.38;;
78322;SDS011;67583;50.616;-3.404;2024-03-06T03:06:58;14.38;;;6.95;;
78322;SDS011;67583;50.616;-3.404;2024-03-06T03:09:23;16.48;;;5.53;;
78322;SDS011;67583;50.616;-3.404;2024-03-06T03:11:49;19.25;;;6.30;;
78322;SDS011;67583;50.616;-3.404;2024-03-06T03:14:14;13.65;;;5.53;;
78322;SDS011;67583;50.616;-3.404;2024-03-06T03:16:39;13.30;;;6.05;;
78322;SDS011;67583;50.616;-3.404;2024-03-06T03:19:06;13.00;;;6.25;;
78322;SDS011;67583;50.616;-3.404;2024-03-06T03:21:33;10.93;;;6.65;;
78322;SDS011;67583;50.616;-3.404;2024-03-06T03:23:58;18.83;;;6.13;;
78322;SDS011;67583;50.616;-3.404;2024-03-06T03:26:24;24.27;;;7.00;;
78322;SDS011;67583;50.616;-3.404;2024-03-06T03:28:49;17.92;;;6.57;;
78322;SDS011;67583;50.616;-3.404;2024-03-06T03:31:15;23.23;;;8.05;;
78322;SDS011;67583;50.616;-3.404;2024-03-06T03:33:40;15.40;;;6.03;;
78322;SDS011;67583;50.616;-3.404;2024-03-06T03:36:06;12.48;;;5.82;;
78322;SDS011;67583;50.616;-3.404;2024-03-06T03:38:32;20.15;;;7.63;;
78322;SDS011;67583;50.616;-3.404;2024-03-06T03:41:01;17.08;;;6.57;;
78322;SDS011;67583;50.616;-3.404;2024-03-06T03:43:29;13.85;;;5.88;;
78322;SDS011;67583;50.616;-3.404;2024-03-06T03:48:20;17.57;;;6.60;;
78322;SDS011;67583;50.616;-3.404;2024-03-06T03:50:45;17.52;;;6.25;;
78322;SDS011;67583;50.616;-3.404;2024-03-06T03:53:11;13.95;;;6.65;;
78322;SDS011;67583;50.616;-3.404;2024-03-06T03:55:36;11.90;;;6.53;;
78322;SDS011;67583;50.616;-3.404;2024-03-06T03:58:01;9.82;;;6.30;;
78322;SDS011;67583;50.616;-3.404;2024-03-06T04:00:27;12.02;;;5.60;;
78322;SDS011;67583;50.616;-3.404;2024-03-06T04:02:53;18.20;;;7.82;;
78322;SDS011;67583;50.616;-3.404;2024-03-06T04:05:18;16.63;;;6.60;;
78322;SDS011;67583;50.616;-3.404;2024-03-06T04:07:44;13.85;;;6.80;;
78322;SDS011;67583;50.616;-3.404;2024-03-06T04:10:09;10.90;;;5.63;;
78322;SDS011;67583;50.616;-3.404;2024-03-06T04:12:36;11.68;;;4.82;;
78322;SDS011;67583;50.616;-3.404;2024-03-06T04:15:02;17.20;;;5.70;;
78322;SDS011;67583;50.616;-3.404;2024-03-06T04:17:29;10.32;;;6.00;;
78322;SDS011;67583;50.616;-3.404;2024-03-06T04:19:54;10.23;;;5.50;;
78322;SDS011;67583;50.616;-3.404;2024-03-06T04:24:45;14.77;;;4.97;;
78322;SDS011;67583;50.616;-3.404;2024-03-06T04:27:11;11.15;;;5.47;;
78322;SDS011;67583;50.616;-3.404;2024-03-06T04:29:36;10.70;;;6.05;;
78322;SDS011;67583;50.616;-3.404;2024-03-06T04:32:02;15.88;;;5.93;;
78322;SDS011;67583;50.616;-3.404;2024-03-06T04:34:27;16.08;;;6.32;;
78322;SDS011;67583;50.616;-3.404;2024-03-06T04:36:53;15.27;;;5.28;;
78322;SDS011;67583;50.616;-3.404;2024-03-06T04:39:18;17.13;;;6.13;;
78322;SDS011;67583;50.616;-3.404;2024-03-06T04:41:43;14.70;;;6.10;;
78322;SDS011;67583;50.616;-3.404;2024-03-06T04:44:09;18.60;;;5.80;;
78322;SDS011;67583;50.616;-3.404;2024-03-06T04:46:34;12.55;;;6.47;;
78322;SDS011;67583;50.616;-3.404;2024-03-06T04:49:00;17.38;;;7.47;;
78322;SDS011;67583;50.616;-3.404;2024-03-06T04:51:25;17.77;;;6.47;;
78322;SDS011;67583;50.616;-3.404;2024-03-06T04:53:50;16.38;;;7.05;;
78322;SDS011;67583;50.616;-3.404;2024-03-06T04:56:16;12.35;;;5.45;;
78322;SDS011;67583;50.616;-3.404;2024-03-06T04:58:44;22.02;;;7.47;;
78322;SDS011;67583;50.616;-3.404;2024-03-06T05:01:10;16.55;;;6.32;;
78322;SDS011;67583;50.616;-3.404;2024-03-06T05:03:36;15.48;;;6.43;;
78322;SDS011;67583;50.616;-3.404;2024-03-06T05:06:03;16.25;;;6.50;;
78322;SDS011;67583;50.616;-3.404;2024-03-06T05:08:30;14.25;;;6.18;;
78322;SDS011;67583;50.616;-3.404;2024-03-06T05:10:56;10.57;;;6.18;;
78322;SDS011;67583;50.616;-3.404;2024-03-06T05:13:21;14.13;;;5.95;;
78322;SDS011;67583;50.616;-3.404;2024-03-06T05:15:47;16.73;;;5.97;;
78322;SDS011;67583;50.616;-3.404;2024-03-06T05:18:13;14.52;;;6.10;;
78322;SDS011;67583;50.616;-3.404;2024-03-06T05:20:38;12.68;;;6.82;;
78322;SDS011;67583;50.616;-3.404;2024-03-06T05:23:03;12.13;;;6.70;;
78322;SDS011;67583;50.616;-3.404;2024-03-06T05:25:29;11.90;;;7.03;;
78322;SDS011;67583;50.616;-3.404;2024-03-06T05:27:55;13.02;;;6.18;;
78322;SDS011;67583;50.616;-3.404;2024-03-06T05:30:20;16.40;;;7.10;;
78322;SDS011;67583;50.616;-3.404;2024-03-06T05:32:45;12.65;;;6.00;;
78322;SDS011;67583;50.616;-3.404;2024-03-06T05:37:37;12.63;;;6.35;;
78322;SDS011;67583;50.616;-3.404;2024-03-06T05:40:03;17.35;;;6.93;;
78322;SDS011;67583;50.616;-3.404;2024-03-06T05:42:31;12.60;;;6.28;;
78322;SDS011;67583;50.616;-3.404;2024-03-06T05:44:57;16.40;;;6.72;;
78322;SDS011;67583;50.616;-3.404;2024-03-06T05:47:25;13.88;;;5.97;;
78322;SDS011;67583;50.616;-3.404;2024-03-06T05:49:51;15.63;;;6.38;;
78322;SDS011;67583;50.616;-3.404;2024-03-06T05:52:17;14.48;;;6.68;;
78322;SDS011;67583;50.616;-3.404;2024-03-06T05:54:42;12.70;;;6.28;;
78322;SDS011;67583;50.616;-3.404;2024-03-06T05:57:08;10.20;;;5.80;;
78322;SDS011;67583;50.616;-3.404;2024-03-06T05:59:33;10.88;;;5.72;;
78322;SDS011;67583;50.616;-3.404;2024-03-06T06:01:59;13.07;;;5.50;;
78322;SDS011;67583;50.616;-3.404;2024-03-06T06:04:24;17.65;;;6.38;;
78322;SDS011;67583;50.616;-3.404;2024-03-06T06:06:50;9.45;;;5.32;;
78322;SDS011;67583;50.616;-3.404;2024-03-06T06:09:16;14.07;;;7.00;;
78322;SDS011;67583;50.616;-3.404;2024-03-06T06:14:08;12.48;;;5.78;;
78322;SDS011;67583;50.616;-3.404;2024-03-06T06:16:37;12.75;;;5.38;;
78322;SDS011;67583;50.616;-3.404;2024-03-06T06:19:03;13.30;;;6.20;;
78322;SDS011;67583;50.616;-3.404;2024-03-06T06:21:29;11.40;;;6.20;;
78322;SDS011;67583;50.616;-3.404;2024-03-06T06:23:55;16.63;;;7.13;;
78322;SDS011;67583;50.616;-3.404;2024-03-06T06:28:46;14.13;;;6.40;;
78322;SDS011;67583;50.616;-3.404;2024-03-06T06:31:11;13.35;;;5.20;;
78322;SDS011;67583;50.616;-3.404;2024-03-06T06:33:37;14.48;;;6.13;;
78322;SDS011;67583;50.616;-3.404;2024-03-06T06:36:03;10.20;;;6.15;;
78322;SDS011;67583;50.616;-3.404;2024-03-06T06:38:28;13.73;;;5.75;;
78322;SDS011;67583;50.616;-3.404;2024-03-06T06:40:54;15.43;;;6.32;;
78322;SDS011;67583;50.616;-3.404;2024-03-06T06:43:20;11.20;;;5.65;;
78322;SDS011;67583;50.616;-3.404;2024-03-06T06:45:46;11.43;;;6.38;;
78322;SDS011;67583;50.616;-3.404;2024-03-06T06:48:11;14.20;;;6.22;;
78322;SDS011;67583;50.616;-3.404;2024-03-06T06:50:37;12.73;;;5.85;;
78322;SDS011;67583;50.616;-3.404;2024-03-06T06:53:02;13.98;;;5.60;;
78322;SDS011;67583;50.616;-3.404;2024-03-06T06:55:28;13.27;;;5.75;;
78322;SDS011;67583;50.616;-3.404;2024-03-06T06:57:53;11.48;;;5.60;;
78322;SDS011;67583;50.616;-3.404;2024-03-06T07:00:19;14.45;;;4.70;;
78322;SDS011;67583;50.616;-3.404;2024-03-06T07:02:46;10.10;;;5.38;;
78322;SDS011;67583;50.616;-3.404;2024-03-06T07:05:12;17.15;;;6.82;;
78322;SDS011;67583;50.616;-3.404;2024-03-06T07:07:38;16.98;;;6.63;;
78322;SDS011;67583;50.616;-3.404;2024-03-06T07:10:06;14.13;;;7.40;;
78322;SDS011;67583;50.616;-3.404;2024-03-06T07:12:33;13.60;;;5.72;;
78322;SDS011;67583;50.616;-3.404;2024-03-06T07:14:58;15.18;;;6.85;;
78322;SDS011;67583;50.616;-3.404;2024-03-06T07:17:24;18.88;;;6.60;;
78322;SDS011;67583;50.616;-3.404;2024-03-06T07:19:50;10.90;;;5.55;;
78322;SDS011;67583;50.616;-3.404;2024-03-06T07:22:17;11.48;;;5.57;;
78322;SDS011;67583;50.616;-3.404;2024-03-06T07:27:09;16.10;;;5.57;;
78322;SDS011;67583;50.616;-3.404;2024-03-06T07:29:34;17.85;;;6.55;;
78322;SDS011;67583;50.616;-3.404;2024-03-06T07:32:00;23.48;;;7.10;;
78322;SDS011;67583;50.616;-3.404;2024-03-06T07:34:27;21.77;;;7.30;;
78322;SDS011;67583;50.616;-3.404;2024-03-06T07:36:52;14.45;;;5.85;;
78322;SDS011;67583;50.616;-3.404;2024-03-06T07:39:21;13.88;;;6.18;;
78322;SDS011;67583;50.616;-3.404;2024-03-06T07:41:46;18.25;;;7.05;;
78322;SDS011;67583;50.616;-3.404;2024-03-06T07:44:12;14.43;;;6.93;;
78322;SDS011;67583;50.616;-3.404;2024-03-06T07:46:38;15.32;;;6.65;;
78322;SDS011;67583;50.616;-3.404;2024-03-06T07:49:03;16.30;;;6.82;;
78322;SDS011;67583;50.616;-3.404;2024-03-06T07:51:30;17.33;;;6.38;;
78322;SDS011;67583;50.616;-3.404;2024-03-06T07:53:56;14.10;;;6.40;;
78322;SDS011;67583;50.616;-3.404;2024-03-06T07:56:22;18.30;;;5.75;;
78322;SDS011;67583;50.616;-3.404;2024-03-06T07:58:48;21.63;;;6.55;;
78322;SDS011;67583;50.616;-3.404;2024-03-06T08:01:13;14.63;;;6.05;;
78322;SDS011;67583;50.616;-3.404;2024-03-06T08:03:39;15.98;;;6.03;;
78322;SDS011;67583;50.616;-3.404;2024-03-06T08:06:05;16.10;;;6.32;;
78322;SDS011;67583;50.616;-3.404;2024-03-06T08:10:56;14.70;;;5.40;;
78322;SDS011;67583;50.616;-3.404;2024-03-06T08:13:22;16.85;;;6.63;;
78322;SDS011;67583;50.616;-3.404;2024-03-06T08:15:47;15.82;;;5.95;;
78322;SDS011;67583;50.616;-3.404;2024-03-06T08:18:13;18.35;;;6.32;;
78322;SDS011;67583;50.616;-3.404;2024-03-06T08:20:39;15.52;;;7.10;;
78322;SDS011;67583;50.616;-3.404;2024-03-06T08:23:05;12.20;;;5.70;;
78322;SDS011;67583;50.616;-3.404;2024-03-06T08:25:30;13.85;;;5.88;;
78322;SDS011;67583;50.616;-3.404;2024-03-06T08:27:57;14.65;;;6.75;;
78322;SDS011;67583;50.616;-3.404;2024-03-06T08:30:24;13.85;;;6.80;;
78322;SDS011;67583;50.616;-3.404;2024-03-06T08:35:15;13.02;;;5.13;;
78322;SDS011;67583;50.616;-3.404;2024-03-06T08:37:42;13.38;;;6.43;;
78322;SDS011;67583;50.616;-3.404;2024-03-06T08:40:08;18.80;;;6.13;;
78322;SDS011;67583;50.616;-3.404;2024-03-06T08:42:39;16.52;;;6.38;;
78322;SDS011;67583;50.616;-3.404;2024-03-06T08:45:07;17.75;;;6.18;;
78322;SDS011;67583;50.616;-3.404;2024-03-06T08:47:34;12.60;;;6.32;;
78322;SDS011;67583;50.616;-3.404;2024-03-06T08:52:25;24.60;;;7.33;;
78322;SDS011;67583;50.616;-3.404;2024-03-06T08:54:50;21.80;;;7.75;;
78322;SDS011;67583;50.616;-3.404;2024-03-06T08:57:15;15.73;;;7.70;;
78322;SDS011;67583;50.616;-3.404;2024-03-06T09:02:14;12.25;;;6.88;;
78322;SDS011;67583;50.616;-3.404;2024-03-06T09:04:43;21.60;;;8.88;;
78322;SDS011;67583;50.616;-3.404;2024-03-06T09:09:35;15.15;;;8.15;;
78322;SDS011;67583;50.616;-3.404;2024-03-06T09:12:02;18.10;;;9.10;;
78322;SDS011;67583;50.616;-3.404;2024-03-06T09:14:34;20.80;;;10.27;;
78322;SDS011;67583;50.616;-3.404;2024-03-06T09:17:00;22.15;;;11.18;;
78322;SDS011;67583;50.616;-3.404;2024-03-06T09:21:51;19.23;;;10.30;;
78322;SDS011;67583;50.616;-3.404;2024-03-06T09:26:43;22.52;;;12.32;;
78322;SDS011;67583;50.616;-3.404;2024-03-06T09:29:09;19.67;;;11.77;;
78322;SDS011;67583;50.616;-3.404;2024-03-06T09:31:35;35.72;;;15.38;;
78322;SDS011;67583;50.616;-3.404;2024-03-06T09:34:00;32.13;;;14.90;;
78322;SDS011;67583;50.616;-3.404;2024-03-06T09:38:51;34.90;;;19.60;;
78322;SDS011;67583;50.616;-3.404;2024-03-06T09:41:17;35.85;;;19.23;;
78322;SDS011;67583;50.616;-3.404;2024-03-06T09:43:43;39.00;;;23.60;;
78322;SDS011;67583;50.616;-3.404;2024-03-06T09:46:12;41.47;;;20.75;;
78322;SDS011;67583;50.616;-3.404;2024-03-06T09:48:37;29.60;;;17.38;;
78322;SDS011;67583;50.616;-3.404;2024-03-06T09:51:11;31.35;;;18.30;;
78322;SDS011;67583;50.616;-3.404;2024-03-06T09:53:37;29.83;;;15.13;;
78322;SDS011;67583;50.616;-3.404;2024-03-06T09:56:04;24.10;;;14.45;;
78322;SDS011;67583;50.616;-3.404;2024-03-06T09:58:30;25.10;;;14.00;;
78322;SDS011;67583;50.616;-3.404;2024-03-06T10:00:56;27.23;;;16.55;;
78322;SDS011;67583;50.616;-3.404;2024-03-06T10:03:23;23.25;;;11.10;;
78322;SDS011;67583;50.616;-3.404;2024-03-06T10:05:48;23.08;;;11.07;;
78322;SDS011;67583;50.616;-3.404;2024-03-06T10:08:14;26.88;;;9.98;;
78322;SDS011;67583;50.616;-3.404;2024-03-06T10:10:41;20.40;;;5.20;;
78322;SDS011;67583;50.616;-3.404;2024-03-06T10:13:07;18.00;;;5.70;;
78322;SDS011;67583;50.616;-3.404;2024-03-06T10:15:32;18.38;;;4.00;;
78322;SDS011;67583;50.616;-3.404;2024-03-06T10:18:11;19.02;;;4.85;;
78322;SDS011;67583;50.616;-3.404;2024-03-06T10:20:40;13.90;;;3.80;;
78322;SDS011;67583;50.616;-3.404;2024-03-06T10:23:09;11.25;;;2.90;;
78322;SDS011;67583;50.616;-3.404;2024-03-06T10:25:34;20.38;;;4.40;;
78322;SDS011;67583;50.616;-3.404;2024-03-06T10:30:35;21.85;;;4.25;;
78322;SDS011;67583;50.616;-3.404;2024-03-06T10:33:04;10.23;;;3.00;;
78322;SDS011;67583;50.616;-3.404;2024-03-06T10:35:33;14.40;;;2.67;;
78322;SDS011;67583;50.616;-3.404;2024-03-06T10:38:02;25.23;;;3.53;;
78322;SDS011;67583;50.616;-3.404;2024-03-06T10:40:30;15.68;;;3.45;;
78322;SDS011;67583;50.616;-3.404;2024-03-06T10:42:58;14.10;;;3.20;;
78322;SDS011;67583;50.616;-3.404;2024-03-06T10:45:27;13.57;;;2.92;;
78322;SDS011;67583;50.616;-3.404;2024-03-06T10:47:58;10.20;;;3.40;;
78322;SDS011;67583;50.616;-3.404;2024-03-06T10:50:24;11.88;;;2.72;;
78322;SDS011;67583;50.616;-3.404;2024-03-06T10:52:51;8.88;;;2.70;;
78322;SDS011;67583;50.616;-3.404;2024-03-06T10:55:21;11.48;;;2.45;;
78322;SDS011;67583;50.616;-3.404;2024-03-06T10:57:48;15.27;;;3.03;;
78322;SDS011;67583;50.616;-3.404;2024-03-06T11:00:14;21.27;;;3.58;;
78322;SDS011;67583;50.616;-3.404;2024-03-06T11:02:45;10.85;;;2.67;;
78322;SDS011;67583;50.616;-3.404;2024-03-06T11:05:15;24.17;;;7.00;;
78322;SDS011;67583;50.616;-3.404;2024-03-06T11:07:41;12.82;;;3.50;;
78322;SDS011;67583;50.616;-3.404;2024-03-06T11:10:07;9.45;;;2.75;;
78322;SDS011;67583;50.616;-3.404;2024-03-06T11:12:33;12.35;;;2.67;;
78322;SDS011;67583;50.616;-3.404;2024-03-06T11:15:07;20.80;;;2.88;;
78322;SDS011;67583;50.616;-3.404;2024-03-06T11:17:34;10.70;;;2.40;;
78322;SDS011;67583;50.616;-3.404;2024-03-06T11:31:01;9.40;;;2.70;;
78322;SDS011;67583;50.616;-3.404;2024-03-06T11:33:46;10.30;;;2.40;;
78322;SDS011;67583;50.616;-3.404;2024-03-06T11:36:22;11.88;;;2.75;;
78322;SDS011;67583;50.616;-3.404;2024-03-06T11:39:01;10.90;;;2.47;;
78322;SDS011;67583;50.616;-3.404;2024-03-06T11:41:52;13.55;;;2.92;;
78322;SDS011;67583;50.616;-3.404;2024-03-06T11:44:17;17.48;;;3.30;;
78322;SDS011;67583;50.616;-3.404;2024-03-06T11:46:58;16.38;;;3.30;;
78322;SDS011;67583;50.616;-3.404;2024-03-06T11:49:26;9.95;;;2.35;;
78322;SDS011;67583;50.616;-3.404;2024-03-06T11:51:55;17.70;;;2.90;;
78322;SDS011;67583;50.616;-3.404;2024-03-06T11:54:22;10.05;;;3.53;;
78322;SDS011;67583;50.616;-3.404;2024-03-06T11:56:58;11.93;;;2.42;;
78322;SDS011;67583;50.616;-3.404;2024-03-06T11:59:30;11.35;;;2.75;;
78322;SDS011;67583;50.616;-3.404;2024-03-06T12:02:01;12.93;;;3.13;;
78322;SDS011;67583;50.616;-3.404;2024-03-06T12:04:27;16.52;;;3.42;;
78322;SDS011;67583;50.616;-3.404;2024-03-06T12:06:56;11.77;;;2.50;;
78322;SDS011;67583;50.616;-3.404;2024-03-06T12:09:22;9.30;;;1.98;;
78322;SDS011;67583;50.616;-3.404;2024-03-06T12:11:47;21.17;;;3.28;;
78322;SDS011;67583;50.616;-3.404;2024-03-06T12:14:19;21.48;;;2.83;;
78322;SDS011;67583;50.616;-3.404;2024-03-06T12:19:21;12.95;;;3.00;;
78322;SDS011;67583;50.616;-3.404;2024-03-06T12:21:47;7.82;;;3.13;;
78322;SDS011;67583;50.616;-3.404;2024-03-06T12:24:15;12.80;;;3.00;;
78322;SDS011;67583;50.616;-3.404;2024-03-06T12:26:41;15.73;;;2.90;;
78322;SDS011;67583;50.616;-3.404;2024-03-06T12:29:11;9.20;;;2.10;;
78322;SDS011;67583;50.616;-3.404;2024-03-06T12:31:41;6.72;;;2.80;;
78322;SDS011;67583;50.616;-3.404;2024-03-06T12:34:07;10.80;;;2.55;;
78322;SDS011;67583;50.616;-3.404;2024-03-06T12:36:34;15.30;;;2.60;;
78322;SDS011;67583;50.616;-3.404;2024-03-06T12:38:59;15.90;;;4.38;;
78322;SDS011;67583;50.616;-3.404;2024-03-06T12:41:26;8.95;;;2.97;;
78322;SDS011;67583;50.616;-3.404;2024-03-06T12:43:52;11.93;;;3.13;;
78322;SDS011;67583;50.616;-3.404;2024-03-06T12:46:18;15.38;;;2.60;;
78322;SDS011;67583;50.616;-3.404;2024-03-06T12:48:44;10.90;;;2.92;;
78322;SDS011;67583;50.616;-3.404;2024-03-06T12:51:10;9.70;;;3.17;;
78322;SDS011;67583;50.616;-3.404;2024-03-06T12:53:36;17.05;;;2.75;;
78322;SDS011;67583;50.616;-3.404;2024-03-06T12:56:01;14.93;;;2.78;;
78322;SDS011;67583;50.616;-3.404;2024-03-06T12:58:27;11.35;;;4.00;;
78322;SDS011;67583;50.616;-3.404;2024-03-06T13:00:52;10.00;;;2.40;;
78322;SDS011;67583;50.616;-3.404;2024-03-06T13:03:19;16.35;;;2.58;;
78322;SDS011;67583;50.616;-3.404;2024-03-06T13:05:44;18.67;;;2.63;;
78322;SDS011;67583;50.616;-3.404;2024-03-06T13:08:11;12.20;;;2.72;;
78322;SDS011;67583;50.616;-3.404;2024-03-06T13:10:41;17.13;;;3.60;;
78322;SDS011;67583;50.616;-3.404;2024-03-06T13:13:07;18.55;;;3.47;;
78322;SDS011;67583;50.616;-3.404;2024-03-06T13:15:33;14.27;;;2.95;;
78322;SDS011;67583;50.616;-3.404;2024-03-06T13:18:04;12.38;;;3.10;;
78322;SDS011;67583;50.616;-3.404;2024-03-06T13:20:30;12.75;;;3.10;;
78322;SDS011;67583;50.616;-3.404;2024-03-06T13:22:56;10.23;;;2.17;;
78322;SDS011;67583;50.616;-3.404;2024-03-06T13:25:21;17.25;;;3.63;;
78322;SDS011;67583;50.616;-3.404;2024-03-06T13:27:47;14.68;;;4.05;;
78322;SDS011;67583;50.616;-3.404;2024-03-06T13:30:12;11.70;;;2.60;;
78322;SDS011;67583;50.616;-3.404;2024-03-06T13:32:38;10.75;;;3.15;;
78322;SDS011;67583;50.616;-3.404;2024-03-06T13:35:03;11.75;;;2.80;;
78322;SDS011;67583;50.616;-3.404;2024-03-06T13:37:31;12.13;;;2.70;;
78322;SDS011;67583;50.616;-3.404;2024-03-06T13:39:59;16.02;;;3.85;;
78322;SDS011;67583;50.616;-3.404;2024-03-06T13:42:26;14.18;;;3.10;;
78322;SDS011;67583;50.616;-3.404;2024-03-06T13:44:52;13.23;;;3.33;;
78322;SDS011;67583;50.616;-3.404;2024-03-06T13:47:17;20.42;;;3.28;;
78322;SDS011;67583;50.616;-3.404;2024-03-06T13:49:43;14.38;;;3.88;;
78322;SDS011;67583;50.616;-3.404;2024-03-06T13:52:09;10.63;;;2.33;;
78322;SDS011;67583;50.616;-3.404;2024-03-06T13:54:41;15.63;;;2.75;;
78322;SDS011;67583;50.616;-3.404;2024-03-06T13:57:07;9.82;;;2.55;;
78322;SDS011;67583;50.616;-3.404;2024-03-06T13:59:35;16.42;;;2.35;;
78322;SDS011;67583;50.616;-3.404;2024-03-06T14:02:02;15.43;;;3.92;;
78322;SDS011;67583;50.616;-3.404;2024-03-06T14:04:28;16.65;;;3.55;;
78322;SDS011;67583;50.616;-3.404;2024-03-06T14:06:54;10.95;;;2.92;;
78322;SDS011;67583;50.616;-3.404;2024-03-06T14:09:19;13.93;;;2.38;;
78322;SDS011;67583;50.616;-3.404;2024-03-06T14:11:48;7.97;;;2.33;;
78322;SDS011;67583;50.616;-3.404;2024-03-06T14:14:14;9.07;;;2.65;;
78322;SDS011;67583;50.616;-3.404;2024-03-06T14:16:39;13.07;;;2.55;;
78322;SDS011;67583;50.616;-3.404;2024-03-06T14:19:05;22.35;;;2.80;;
78322;SDS011;67583;50.616;-3.404;2024-03-06T14:21:31;10.18;;;2.08;;
78322;SDS011;67583;50.616;-3.404;2024-03-06T14:23:58;11.63;;;3.08;;
78322;SDS011;67583;50.616;-3.404;2024-03-06T14:26:24;14.23;;;2.33;;
78322;SDS011;67583;50.616;-3.404;2024-03-06T14:28:50;14.68;;;2.72;;
78322;SDS011;67583;50.616;-3.404;2024-03-06T14:31:15;22.13;;;3.80;;
78322;SDS011;67583;50.616;-3.404;2024-03-06T14:33:40;13.80;;;3.28;;
78322;SDS011;67583;50.616;-3.404;2024-03-06T14:36:06;9.93;;;2.53;;
78322;SDS011;67583;50.616;-3.404;2024-03-06T14:38:32;13.35;;;3.28;;
78322;SDS011;67583;50.616;-3.404;2024-03-06T14:40:58;14.10;;;2.45;;
78322;SDS011;67583;50.616;-3.404;2024-03-06T14:43:24;10.95;;;3.42;;
78322;SDS011;67583;50.616;-3.404;2024-03-06T14:45:49;12.90;;;2.47;;
78322;SDS011;67583;50.616;-3.404;2024-03-06T14:48:15;17.23;;;2.80;;
78322;SDS011;67583;50.616;-3.404;2024-03-06T14:50:41;14.77;;;2.72;;
78322;SDS011;67583;50.616;-3.404;2024-03-06T14:53:06;17.95;;;2.50;;
78322;SDS011;67583;50.616;-3.404;2024-03-06T14:55:31;14.60;;;2.65;;
78322;SDS011;67583;50.616;-3.404;2024-03-06T14:57:57;14.60;;;2.45;;
78322;SDS011;67583;50.616;-3.404;2024-03-06T15:00:22;8.95;;;2.15;;
78322;SDS011;67583;50.616;-3.404;2024-03-06T15:02:48;10.18;;;3.08;;
78322;SDS011;67583;50.616;-3.404;2024-03-06T15:05:14;10.52;;;2.58;;
78322;SDS011;67583;50.616;-3.404;2024-03-06T15:07:39;9.65;;;2.90;;
78322;SDS011;67583;50.616;-3.404;2024-03-06T15:10:05;14.35;;;2.50;;
78322;SDS011;67583;50.616;-3.404;2024-03-06T15:12:31;13.80;;;3.78;;
78322;SDS011;67583;50.616;-3.404;2024-03-06T15:14:57;15.35;;;2.42;;
78322;SDS011;67583;50.616;-3.404;2024-03-06T15:17:23;12.48;;;3.47;;
78322;SDS011;67583;50.616;-3.404;2024-03-06T15:19:51;11.27;;;2.47;;
78322;SDS011;67583;50.616;-3.404;2024-03-06T15:22:16;9.48;;;2.53;;